Pine Grove, New York
Current Conditions -  °F | °C
As of 11:58 AM on Saturday 22 Nov 2014 (Local Time) from KGTB Reporting Station
Overcast Overcast  
Wind Chill: 22°   Ceiling: 5000
Heat Index: 33°   Visibility: 10mi
Dew Point: 12°   Wind: 17mph
Humidity: 42%   Direction: 210°SSW
Pressure: 30.05"   Gusts: NA
Location:  43.7232°N, 75.2497°W
Report Text: KGTB 221658Z AUTO 21015KT 10SM OVC050 01/M11 A3005 RMK AO2 SLP186 T00071110
Loading
Personal Weather Stations






























Interactive Weather Map New forecast layout! Learn more

10-Day Weather Forecast

Advertisements
Track Severe Weather on mobile